createdAt,value
2023-04-07T00:00:26.854Z,15.03
2023-04-07T00:02:54.057Z,14.20
2023-04-07T00:05:20.977Z,13.37
2023-04-07T00:07:55.891Z,13.57
2023-04-07T00:10:25.041Z,13.97
2023-04-07T00:12:52.335Z,14.63
2023-04-07T00:15:19.326Z,16.03
2023-04-07T00:17:46.095Z,13.67
2023-04-07T00:20:13.024Z,17.13
2023-04-07T00:22:39.798Z,14.93
2023-04-07T00:25:07.244Z,14.33
2023-04-07T00:27:34.043Z,15.07
2023-04-07T00:30:00.861Z,16.30
2023-04-07T00:32:27.650Z,15.30
2023-04-07T00:34:54.389Z,15.23
2023-04-07T00:37:21.173Z,15.03
2023-04-07T00:39:48.096Z,14.70
2023-04-07T00:42:14.832Z,14.17
2023-04-07T00:44:41.618Z,15.50
2023-04-07T00:47:08.565Z,16.27
2023-04-07T00:49:39.880Z,16.07
2023-04-07T00:52:07.758Z,15.50
2023-04-07T00:54:34.526Z,14.30
2023-04-07T00:57:01.748Z,14.80
2023-04-07T00:59:31.235Z,16.00
2023-04-07T01:02:06.988Z,15.97
2023-04-07T01:04:42.072Z,16.40
2023-04-07T01:07:18.686Z,17.17
2023-04-07T01:09:57.703Z,16.90
2023-04-07T01:12:52.980Z,16.50
2023-04-07T01:15:22.136Z,16.33
2023-04-07T01:17:56.075Z,16.17
2023-04-07T01:20:25.749Z,16.20
2023-04-07T01:22:57.655Z,16.47
2023-04-07T01:25:30.444Z,17.40
2023-04-07T01:28:06.263Z,17.90
2023-04-07T01:30:38.023Z,16.97
2023-04-07T01:33:06.542Z,17.20
2023-04-07T01:35:35.952Z,17.83
2023-04-07T01:38:03.895Z,17.17
2023-04-07T01:40:31.411Z,17.30
2023-04-07T01:42:58.632Z,16.53
2023-04-07T01:45:27.512Z,18.37
2023-04-07T01:47:55.300Z,16.73
2023-04-07T01:50:22.520Z,19.03
2023-04-07T01:52:49.733Z,16.87
2023-04-07T01:55:16.433Z,17.50
2023-04-07T01:57:43.199Z,17.43
2023-04-07T02:00:10.390Z,17.57
2023-04-07T02:02:44.332Z,19.30
2023-04-07T02:05:14.999Z,17.87
2023-04-07T02:07:52.204Z,17.90
2023-04-07T02:10:23.764Z,19.50
2023-04-07T02:12:51.769Z,19.53
2023-04-07T02:15:19.288Z,18.63
2023-04-07T02:17:53.422Z,19.13
2023-04-07T02:20:21.954Z,19.30
2023-04-07T02:22:48.988Z,20.73
2023-04-07T02:25:29.877Z,20.17
2023-04-07T02:27:58.068Z,20.10
2023-04-07T02:30:25.454Z,21.77
2023-04-07T02:32:53.022Z,22.00
2023-04-07T02:35:20.099Z,21.47
2023-04-07T02:37:47.423Z,23.37
2023-04-07T02:40:14.365Z,24.17
2023-04-07T02:42:41.294Z,25.00
2023-04-07T02:45:09.475Z,24.50
2023-04-07T02:47:37.145Z,26.60
2023-04-07T02:50:04.603Z,25.83
2023-04-07T02:52:31.430Z,26.70
2023-04-07T02:54:58.125Z,25.80
2023-04-07T02:57:24.919Z,26.50
2023-04-07T02:59:51.668Z,25.90
2023-04-07T03:02:18.568Z,27.10
2023-04-07T03:04:45.362Z,27.97
2023-04-07T03:07:12.079Z,28.07
2023-04-07T03:09:38.801Z,27.27
2023-04-07T03:12:05.849Z,27.67
2023-04-07T03:14:32.663Z,28.57
2023-04-07T03:16:59.369Z,28.30
2023-04-07T03:19:26.308Z,29.70
2023-04-07T03:21:53.006Z,29.50
2023-04-07T03:24:19.860Z,28.60
2023-04-07T03:26:47.216Z,28.27
2023-04-07T03:29:14.020Z,29.37
2023-04-07T03:31:40.755Z,29.23
2023-04-07T03:34:07.528Z,29.10
2023-04-07T03:36:34.251Z,30.53
2023-04-07T03:39:01.130Z,30.20
2023-04-07T03:41:27.902Z,29.87
2023-04-07T03:43:54.729Z,28.60
2023-04-07T03:46:21.695Z,27.60
2023-04-07T03:48:48.487Z,28.40
2023-04-07T03:51:16.205Z,30.13
2023-04-07T03:53:43.022Z,27.80
2023-04-07T03:56:09.990Z,28.47
2023-04-07T03:58:36.877Z,27.50
2023-04-07T04:01:03.811Z,28.10
2023-04-07T04:03:30.808Z,27.53
2023-04-07T04:05:57.570Z,27.97
2023-04-07T04:08:24.282Z,29.00
2023-04-07T04:10:51.314Z,27.77
2023-04-07T04:13:18.087Z,27.33
2023-04-07T04:15:44.799Z,27.10
2023-04-07T04:18:11.662Z,27.50
2023-04-07T04:20:38.494Z,27.67
2023-04-07T04:23:05.165Z,27.43
2023-04-07T04:25:31.918Z,28.90
2023-04-07T04:27:58.709Z,26.77
2023-04-07T04:30:25.466Z,28.03
2023-04-07T04:32:52.278Z,27.70
2023-04-07T04:35:19.188Z,28.53
2023-04-07T04:37:45.918Z,28.47
2023-04-07T04:40:13.237Z,27.60
2023-04-07T04:42:40.257Z,26.90
2023-04-07T04:45:07.769Z,27.67
2023-04-07T04:47:34.606Z,27.67
2023-04-07T04:50:01.506Z,28.70
2023-04-07T04:52:28.862Z,29.20
2023-04-07T04:54:55.803Z,28.07
2023-04-07T04:57:22.711Z,26.43
2023-04-07T04:59:49.526Z,30.43
2023-04-07T05:02:16.386Z,26.60
2023-04-07T05:04:43.446Z,27.50
2023-04-07T05:07:10.452Z,26.90
2023-04-07T05:09:37.159Z,26.50
2023-04-07T05:12:04.138Z,27.30
2023-04-07T05:14:30.889Z,27.30
2023-04-07T05:16:57.677Z,25.40
2023-04-07T05:19:24.369Z,25.97
2023-04-07T05:21:51.072Z,23.50
2023-04-07T05:24:17.747Z,22.03
2023-04-07T05:26:44.466Z,23.70
2023-04-07T05:29:11.287Z,22.27
2023-04-07T05:31:38.163Z,21.70
2023-04-07T05:34:04.922Z,20.90
2023-04-07T05:36:31.854Z,21.00
2023-04-07T05:38:58.640Z,19.60
2023-04-07T05:41:25.305Z,19.70
2023-04-07T05:43:52.210Z,21.40
2023-04-07T05:46:19.305Z,20.23
2023-04-07T05:48:46.413Z,17.80
2023-04-07T05:51:13.218Z,17.27
2023-04-07T05:53:40.017Z,17.23
2023-04-07T05:56:07.224Z,16.30
2023-04-07T05:58:33.936Z,15.50
2023-04-07T06:01:00.841Z,14.30
2023-04-07T06:03:27.669Z,14.57
2023-04-07T06:05:54.523Z,15.70
2023-04-07T06:08:21.562Z,14.83
2023-04-07T06:10:48.446Z,13.97
2023-04-07T06:13:15.123Z,13.23
2023-04-07T06:15:41.884Z,15.70
2023-04-07T06:18:08.607Z,13.37
2023-04-07T06:20:35.904Z,13.53
2023-04-07T06:23:02.669Z,13.03
2023-04-07T06:25:29.345Z,13.00
2023-04-07T06:27:56.264Z,12.60
2023-04-07T06:30:23.006Z,11.37
2023-04-07T06:32:49.987Z,10.33
2023-04-07T06:35:16.779Z,11.10
2023-04-07T06:37:43.526Z,9.87
2023-04-07T06:40:10.539Z,9.83
2023-04-07T06:42:37.245Z,9.10
2023-04-07T06:45:04.434Z,9.60
2023-04-07T06:47:31.306Z,9.80
2023-04-07T06:49:58.062Z,9.73
2023-04-07T06:52:24.773Z,9.60
2023-04-07T06:54:51.698Z,9.13
2023-04-07T06:57:18.437Z,9.67
2023-04-07T06:59:45.521Z,9.37
2023-04-07T07:02:12.471Z,8.50
2023-04-07T07:04:39.458Z,8.10
2023-04-07T07:07:06.399Z,8.20
2023-04-07T07:09:33.164Z,8.30
2023-04-07T07:12:04.020Z,7.97
2023-04-07T07:14:31.196Z,7.70
2023-04-07T07:16:58.082Z,7.97
2023-04-07T07:19:24.813Z,8.40
2023-04-07T07:21:51.490Z,6.70
2023-04-07T07:24:18.240Z,7.47
2023-04-07T07:26:46.017Z,7.23
2023-04-07T07:29:12.881Z,7.30
2023-04-07T07:31:39.624Z,7.40
2023-04-07T07:34:06.733Z,6.73
2023-04-07T07:36:33.528Z,8.20
2023-04-07T07:39:00.538Z,7.50
2023-04-07T07:41:27.471Z,7.70
2023-04-07T07:43:54.352Z,6.50
2023-04-07T07:46:21.178Z,8.20
2023-04-07T07:48:47.970Z,7.80
2023-04-07T07:51:14.691Z,7.57
2023-04-07T07:53:41.584Z,6.63
2023-04-07T07:56:08.252Z,7.33
2023-04-07T07:58:35.022Z,7.57
2023-04-07T08:01:02.056Z,7.30
2023-04-07T08:03:28.910Z,7.93
2023-04-07T08:05:55.957Z,8.33
2023-04-07T08:08:22.661Z,8.27
2023-04-07T08:10:49.513Z,8.43
2023-04-07T08:13:16.383Z,8.27
2023-04-07T08:15:43.369Z,8.70
2023-04-07T08:18:11.376Z,8.40
2023-04-07T08:20:38.115Z,8.57
2023-04-07T08:23:05.127Z,8.90
2023-04-07T08:25:32.115Z,8.20
2023-04-07T08:27:58.918Z,9.23
2023-04-07T08:30:26.838Z,8.63
2023-04-07T08:32:53.713Z,9.10
2023-04-07T08:35:20.623Z,8.23
2023-04-07T08:37:47.477Z,7.40
2023-04-07T08:40:14.334Z,8.53
2023-04-07T08:42:43.799Z,7.43
2023-04-07T08:45:10.895Z,7.77
2023-04-07T08:47:39.988Z,8.57
2023-04-07T08:50:09.422Z,7.83
2023-04-07T08:52:50.907Z,8.60
2023-04-07T08:55:17.828Z,8.57
2023-04-07T08:57:45.678Z,7.50
2023-04-07T09:00:13.716Z,8.60
2023-04-07T09:02:44.443Z,8.53
2023-04-07T09:05:12.386Z,7.43
2023-04-07T09:07:45.824Z,8.97
2023-04-07T09:10:12.748Z,9.27
2023-04-07T09:12:39.962Z,8.37
2023-04-07T09:15:07.901Z,8.83
2023-04-07T09:17:34.827Z,8.30
2023-04-07T09:20:02.183Z,8.37
2023-04-07T09:22:56.485Z,7.43
2023-04-07T09:25:26.447Z,8.63
2023-04-07T09:28:01.996Z,9.23
2023-04-07T09:30:30.357Z,8.77
2023-04-07T09:32:58.110Z,7.93
2023-04-07T09:35:25.145Z,7.73
2023-04-07T09:38:09.392Z,8.07
2023-04-07T09:40:37.628Z,7.57
2023-04-07T09:43:05.961Z,7.80
2023-04-07T09:45:36.144Z,7.47
2023-04-07T09:48:08.801Z,6.83
2023-04-07T09:50:41.268Z,7.17
2023-04-07T09:53:08.547Z,7.13
2023-04-07T09:55:36.821Z,7.00
2023-04-07T09:58:06.320Z,7.30
2023-04-07T10:00:33.373Z,7.00
2023-04-07T10:03:01.866Z,7.10
2023-04-07T10:05:29.224Z,7.77
2023-04-07T10:07:56.447Z,8.20
2023-04-07T10:10:23.570Z,7.40
2023-04-07T10:12:53.063Z,7.40
2023-04-07T10:15:20.512Z,8.53
2023-04-07T10:17:51.731Z,8.17
2023-04-07T10:20:21.160Z,9.63
2023-04-07T10:22:53.887Z,9.70
2023-04-07T10:25:24.657Z,8.83
2023-04-07T10:27:56.345Z,9.33
2023-04-07T10:30:28.907Z,9.00
2023-04-07T10:32:56.057Z,9.53
2023-04-07T10:35:23.738Z,10.77
2023-04-07T10:38:10.750Z,10.77
2023-04-07T10:40:38.258Z,11.30
2023-04-07T10:43:09.719Z,12.27
2023-04-07T10:45:48.832Z,11.00
2023-04-07T10:48:19.582Z,12.20
2023-04-07T10:51:04.852Z,12.67
2023-04-07T10:53:32.160Z,12.23
2023-04-07T10:55:59.323Z,12.67
2023-04-07T10:58:29.060Z,12.27
2023-04-07T11:01:08.428Z,12.00
2023-04-07T11:03:36.756Z,10.83
2023-04-07T11:06:12.671Z,11.40
2023-04-07T11:08:45.579Z,10.57
2023-04-07T11:11:15.889Z,11.30
2023-04-07T11:13:44.180Z,11.70
2023-04-07T11:16:11.410Z,11.40
2023-04-07T11:18:39.147Z,11.97
2023-04-07T11:21:06.885Z,11.07
2023-04-07T11:23:45.520Z,11.17
2023-04-07T11:26:14.129Z,10.27
2023-04-07T11:28:48.021Z,12.20
2023-04-07T11:31:31.926Z,12.20
2023-04-07T11:34:00.753Z,12.07
2023-04-07T11:36:28.948Z,10.87
2023-04-07T11:38:57.670Z,11.40
2023-04-07T11:41:26.413Z,11.97
2023-04-07T11:44:12.641Z,11.70
2023-04-07T11:46:59.795Z,11.00
2023-04-07T11:49:28.754Z,10.67
2023-04-07T11:52:04.188Z,10.70
2023-04-07T11:54:43.991Z,9.93
2023-04-07T11:57:12.864Z,10.67
2023-04-07T11:59:41.318Z,10.13
2023-04-07T12:02:08.365Z,11.07
2023-04-07T12:04:37.906Z,11.37
2023-04-07T12:07:11.780Z,10.30
2023-04-07T12:09:38.710Z,10.10
2023-04-07T12:12:07.781Z,9.87
2023-04-07T12:14:35.617Z,8.93
2023-04-07T12:17:03.751Z,9.57
2023-04-07T12:19:35.579Z,9.63
2023-04-07T12:22:02.420Z,9.03
2023-04-07T12:24:29.304Z,9.77
2023-04-07T12:26:56.611Z,9.87
2023-04-07T12:29:23.468Z,9.07
2023-04-07T12:31:51.369Z,8.90
2023-04-07T12:34:18.746Z,9.23
2023-04-07T12:36:45.661Z,8.93
2023-04-07T12:39:12.700Z,10.07
2023-04-07T12:41:39.903Z,8.50
2023-04-07T12:44:06.868Z,7.27
2023-04-07T12:46:34.091Z,7.83
2023-04-07T12:49:01.158Z,6.80
2023-04-07T12:51:28.508Z,6.80
2023-04-07T12:53:55.268Z,7.50
2023-04-07T12:56:22.515Z,7.23
2023-04-07T12:58:49.343Z,8.47
2023-04-07T13:01:16.742Z,8.20
2023-04-07T13:03:44.063Z,9.47
2023-04-07T13:06:11.750Z,10.10
2023-04-07T13:08:39.526Z,10.40
2023-04-07T13:11:06.920Z,10.40
2023-04-07T13:13:33.746Z,13.77
2023-04-07T13:16:01.005Z,11.13
2023-04-07T13:18:27.667Z,11.63
2023-04-07T13:21:10.713Z,11.70
2023-04-07T13:23:54.072Z,11.50
2023-04-07T13:26:20.936Z,11.00
2023-04-07T13:28:47.918Z,12.50
2023-04-07T13:31:16.198Z,10.77
2023-04-07T13:33:43.354Z,10.67
2023-04-07T13:36:10.335Z,11.20
2023-04-07T13:38:37.140Z,10.70
2023-04-07T13:41:04.083Z,10.80
2023-04-07T13:43:30.789Z,9.00
2023-04-07T13:45:57.634Z,9.60
2023-04-07T13:48:24.415Z,8.40
2023-04-07T13:50:51.162Z,8.57
2023-04-07T13:53:19.224Z,7.77
2023-04-07T13:55:46.315Z,7.93
2023-04-07T13:58:13.425Z,8.13
2023-04-07T14:00:40.304Z,8.87
2023-04-07T14:03:08.099Z,8.00
2023-04-07T14:05:35.969Z,8.47
2023-04-07T14:08:02.892Z,7.80
2023-04-07T14:10:29.761Z,7.80
2023-04-07T14:12:57.137Z,7.90
2023-04-07T14:15:23.873Z,7.83
2023-04-07T14:17:50.737Z,7.77
2023-04-07T14:20:17.595Z,7.10
2023-04-07T14:22:44.604Z,7.43
2023-04-07T14:25:11.821Z,6.77
2023-04-07T14:27:38.532Z,7.83
2023-04-07T14:30:05.927Z,7.23
2023-04-07T14:32:34.342Z,8.27
2023-04-07T14:35:01.388Z,6.87
2023-04-07T14:37:28.919Z,8.50
2023-04-07T14:42:26.069Z,9.77
2023-04-07T14:44:53.164Z,10.13
2023-04-07T14:47:20.166Z,10.00
2023-04-07T14:49:47.180Z,10.57
2023-04-07T14:52:14.129Z,9.93
2023-04-07T14:54:40.961Z,10.43
2023-04-07T14:57:07.703Z,9.60
2023-04-07T14:59:34.490Z,8.70
2023-04-07T15:02:01.257Z,9.43
2023-04-07T15:04:28.101Z,9.20
2023-04-07T15:06:54.981Z,9.50
2023-04-07T15:09:21.881Z,9.20
2023-04-07T15:11:48.641Z,10.13
2023-04-07T15:14:15.401Z,8.77
2023-04-07T15:16:42.281Z,9.63
2023-04-07T15:19:08.987Z,9.47
2023-04-07T15:21:35.692Z,8.60
2023-04-07T15:24:02.499Z,9.50
2023-04-07T15:26:29.320Z,8.57
2023-04-07T15:28:56.039Z,8.20
2023-04-07T15:31:23.481Z,9.53
2023-04-07T15:33:51.012Z,9.00
2023-04-07T15:36:17.725Z,8.63
2023-04-07T15:38:44.514Z,10.10
2023-04-07T15:41:16.011Z,9.27
2023-04-07T15:43:42.804Z,8.67
2023-04-07T15:46:09.548Z,9.37
2023-04-07T15:48:36.436Z,10.13
2023-04-07T15:51:03.246Z,9.93
2023-04-07T15:53:30.521Z,10.60
2023-04-07T15:55:57.350Z,8.90
2023-04-07T15:58:24.224Z,9.77
2023-04-07T16:00:51.144Z,9.63
2023-04-07T16:03:18.098Z,9.20
2023-04-07T16:05:44.897Z,8.30
2023-04-07T16:08:13.694Z,9.40
2023-04-07T16:10:40.942Z,9.57
2023-04-07T16:13:07.612Z,9.10
2023-04-07T16:15:40.707Z,8.57
2023-04-07T16:18:10.795Z,8.00
2023-04-07T16:20:37.682Z,8.43
2023-04-07T16:23:04.458Z,8.17
2023-04-07T16:25:31.313Z,8.53
2023-04-07T16:27:58.153Z,8.80
2023-04-07T16:30:25.357Z,7.37
2023-04-07T16:32:52.362Z,6.47
2023-04-07T16:35:19.329Z,7.73
2023-04-07T16:37:46.588Z,8.40
2023-04-07T16:40:13.782Z,7.80
2023-04-07T16:42:40.998Z,8.20
2023-04-07T16:45:08.516Z,7.37
2023-04-07T16:47:35.622Z,7.10
2023-04-07T16:50:04.211Z,7.30
2023-04-07T16:52:31.340Z,7.07
2023-04-07T16:54:58.141Z,7.50
2023-04-07T16:57:24.988Z,7.40
2023-04-07T16:59:51.711Z,9.03
2023-04-07T17:02:18.783Z,8.33
2023-04-07T17:04:45.886Z,9.00
2023-04-07T17:07:12.717Z,9.20
2023-04-07T17:09:39.857Z,13.80
2023-04-07T17:12:07.013Z,12.50
2023-04-07T17:14:34.113Z,8.73
2023-04-07T17:17:01.400Z,8.73
2023-04-07T17:19:28.332Z,9.93
2023-04-07T17:21:55.638Z,9.83
2023-04-07T17:24:22.720Z,8.03
2023-04-07T17:26:49.654Z,8.50
2023-04-07T17:29:17.120Z,11.73
2023-04-07T17:31:44.190Z,11.20
2023-04-07T17:34:11.854Z,8.73
2023-04-07T17:36:38.908Z,8.03
2023-04-07T17:39:06.086Z,9.63
2023-04-07T17:41:34.704Z,9.13
2023-04-07T17:44:01.985Z,8.07
2023-04-07T17:46:28.916Z,11.40
2023-04-07T17:48:58.867Z,7.73
2023-04-07T17:51:26.381Z,7.50
2023-04-07T17:53:54.314Z,8.07
2023-04-07T17:56:21.550Z,7.93
2023-04-07T17:58:48.785Z,7.73
2023-04-07T18:01:16.922Z,8.97
2023-04-07T18:03:44.114Z,8.63
2023-04-07T18:06:16.894Z,9.07
2023-04-07T18:08:46.543Z,8.07
2023-04-07T18:11:13.787Z,8.97
2023-04-07T18:13:40.603Z,9.13
2023-04-07T18:16:11.930Z,8.53
2023-04-07T18:18:38.945Z,9.83
2023-04-07T18:21:08.464Z,8.80
2023-04-07T18:23:35.257Z,9.70
2023-04-07T18:26:06.686Z,9.07
2023-04-07T18:28:34.313Z,8.60
2023-04-07T18:31:07.606Z,9.73
2023-04-07T18:33:35.724Z,8.80
2023-04-07T18:36:07.281Z,8.50
2023-04-07T18:38:35.797Z,9.30
2023-04-07T18:41:02.721Z,9.70
2023-04-07T18:43:30.156Z,11.37
2023-04-07T18:45:56.980Z,10.47
2023-04-07T18:48:23.886Z,9.80
2023-04-07T18:50:52.650Z,10.20
2023-04-07T18:53:20.762Z,10.77
2023-04-07T18:55:49.378Z,9.67
2023-04-07T18:58:16.320Z,9.93
2023-04-07T19:00:43.971Z,10.23
2023-04-07T19:03:11.338Z,10.27
2023-04-07T19:05:39.680Z,9.77
2023-04-07T19:08:06.712Z,9.80
2023-04-07T19:10:33.995Z,9.40
2023-04-07T19:13:01.664Z,11.00
2023-04-07T19:15:34.130Z,10.20
2023-04-07T19:18:03.956Z,10.80
2023-04-07T19:20:31.183Z,11.07
2023-04-07T19:22:58.183Z,10.57
2023-04-07T19:25:25.306Z,10.50
2023-04-07T19:27:52.259Z,11.90
2023-04-07T19:30:19.282Z,10.23
2023-04-07T19:32:46.173Z,11.10
2023-04-07T19:35:13.939Z,11.03
2023-04-07T19:37:41.163Z,11.50
2023-04-07T19:40:08.774Z,11.50
2023-04-07T19:42:36.463Z,11.80
2023-04-07T19:45:07.205Z,11.10
2023-04-07T19:47:37.175Z,11.20
2023-04-07T19:50:05.212Z,10.97
2023-04-07T19:52:33.307Z,11.90
2023-04-07T19:55:01.469Z,12.97
2023-04-07T19:57:31.128Z,12.50
2023-04-07T19:59:58.401Z,13.67
2023-04-07T20:02:25.484Z,11.00
2023-04-07T20:04:53.625Z,12.50
2023-04-07T20:07:21.033Z,12.67
2023-04-07T20:09:47.840Z,12.33
2023-04-07T20:12:14.882Z,12.23
2023-04-07T20:14:41.679Z,12.30
2023-04-07T20:17:08.680Z,11.03
2023-04-07T20:19:36.515Z,12.17
2023-04-07T20:22:04.549Z,12.90
2023-04-07T20:24:31.539Z,13.00
2023-04-07T20:26:58.355Z,11.67
2023-04-07T20:29:25.684Z,12.80
2023-04-07T20:31:52.427Z,13.60
2023-04-07T20:34:19.172Z,12.53
2023-04-07T20:36:46.366Z,12.00
2023-04-07T20:39:13.181Z,12.83
2023-04-07T20:41:42.801Z,12.57
2023-04-07T20:44:09.500Z,12.97
2023-04-07T20:46:36.645Z,13.07
2023-04-07T20:49:05.289Z,13.43
2023-04-07T20:51:32.374Z,11.20
2023-04-07T20:53:59.018Z,13.50
2023-04-07T20:56:25.684Z,13.40
2023-04-07T20:58:52.523Z,11.90
2023-04-07T21:01:19.324Z,11.93
2023-04-07T21:03:46.133Z,13.40
2023-04-07T21:06:13.026Z,12.27
2023-04-07T21:08:39.791Z,13.60
2023-04-07T21:11:06.458Z,12.30
2023-04-07T21:13:33.264Z,12.50
2023-04-07T21:16:01.400Z,11.70
2023-04-07T21:18:28.270Z,13.33
2023-04-07T21:20:57.684Z,13.27
2023-04-07T21:23:24.592Z,12.90
2023-04-07T21:25:51.365Z,12.63
2023-04-07T21:28:18.099Z,12.10
2023-04-07T21:30:44.839Z,12.60
2023-04-07T21:33:13.563Z,11.73
2023-04-07T21:35:40.520Z,11.10
2023-04-07T21:38:07.266Z,11.70
2023-04-07T21:40:33.983Z,12.10
2023-04-07T21:43:00.651Z,11.93
2023-04-07T21:45:29.545Z,11.37
2023-04-07T21:47:56.720Z,12.60
2023-04-07T21:50:24.076Z,12.07
2023-04-07T21:52:51.765Z,13.70
2023-04-07T21:55:21.564Z,12.33
2023-04-07T21:57:50.215Z,11.53
2023-04-07T22:00:17.129Z,13.07
2023-04-07T22:02:44.137Z,11.20
2023-04-07T22:05:11.286Z,12.90
2023-04-07T22:07:38.095Z,11.77
2023-04-07T22:10:05.582Z,13.93
2023-04-07T22:12:32.330Z,17.60
2023-04-07T22:14:59.066Z,11.97
2023-04-07T22:17:26.064Z,12.23
2023-04-07T22:19:52.876Z,12.80
2023-04-07T22:22:19.722Z,13.93
2023-04-07T22:24:46.390Z,13.70
2023-04-07T22:27:13.082Z,13.03
2023-04-07T22:29:39.790Z,13.43
2023-04-07T22:32:06.522Z,13.90
2023-04-07T22:34:33.253Z,13.47
2023-04-07T22:37:00.002Z,14.90
2023-04-07T22:39:26.733Z,14.60
2023-04-07T22:41:53.554Z,14.77
2023-04-07T22:44:20.342Z,14.40
2023-04-07T22:46:47.215Z,14.30
2023-04-07T22:49:13.898Z,14.00
2023-04-07T22:51:41.023Z,13.43
2023-04-07T22:54:07.722Z,17.30
2023-04-07T22:56:34.466Z,16.80
2023-04-07T22:59:05.530Z,16.10
2023-04-07T23:01:33.000Z,15.50
2023-04-07T23:04:00.044Z,16.23
2023-04-07T23:06:28.585Z,14.43
2023-04-07T23:08:56.520Z,16.47
2023-04-07T23:11:23.675Z,16.33
2023-04-07T23:13:51.330Z,15.73
2023-04-07T23:16:18.148Z,14.10
2023-04-07T23:18:44.974Z,14.33
2023-04-07T23:21:13.268Z,14.13
2023-04-07T23:23:40.092Z,15.40
2023-04-07T23:26:07.276Z,14.43
2023-04-07T23:28:33.934Z,16.20
2023-04-07T23:31:02.009Z,15.50
2023-04-07T23:33:31.705Z,15.67
2023-04-07T23:35:58.774Z,15.40
2023-04-07T23:38:25.965Z,14.30
2023-04-07T23:40:53.323Z,15.20
2023-04-07T23:43:20.248Z,17.13
2023-04-07T23:45:47.130Z,16.20
2023-04-07T23:48:14.747Z,15.80
2023-04-07T23:50:41.793Z,15.67
2023-04-07T23:53:08.589Z,16.17
2023-04-07T23:55:35.454Z,15.50
2023-04-07T23:58:02.313Z,15.60
